Time;durP1;ratioP1;P1;durP2;ratioP2;P2;SDS_P1;SDS_P2;PMS_P1;PMS_P2;Temp;Humidity;BMP_temperature;BMP_pressure;BME280_temperature;BME280_humidity;BME280_pressure;Samples;Min_cycle;Max_cycle;Signal;HPM_P1;HPM_P2
2021/09/24 00:00:28;;;;;;;6.88;5.32;;;14.00;91.10;;;;;;5033091;28;20033;-78
2021/09/24 00:02:54;;;;;;;6.45;4.88;;;13.90;91.30;;;;;;5030181;28;20028;-78
2021/09/24 00:05:20;;;;;;;7.32;5.43;;;13.90;91.40;;;;;;5032277;28;20029;-78
2021/09/24 00:07:47;;;;;;;6.90;5.45;;;13.90;91.50;;;;;;5030359;28;20022;-78
2021/09/24 00:10:14;;;;;;;5.40;4.50;;;13.80;91.80;;;;;;5047262;28;20166;-78
2021/09/24 00:12:41;;;;;;;6.00;4.63;;;13.90;91.80;;;;;;5033752;28;20030;-79
2021/09/24 00:15:11;;;;;;;8.13;5.80;;;13.80;91.90;;;;;;5036968;28;20041;-79
2021/09/24 00:17:36;;;;;;;6.10;4.97;;;13.80;92.10;;;;;;5010800;28;20026;-76
2021/09/24 00:20:06;;;;;;;8.13;5.45;;;13.80;92.30;;;;;;5009270;28;20094;-78
2021/09/24 00:22:33;;;;;;;6.07;5.10;;;13.80;92.40;;;;;;5026713;28;20060;-80
2021/09/24 00:24:59;;;;;;;5.95;5.30;;;13.80;92.50;;;;;;5031840;28;20033;-78
2021/09/24 00:27:24;;;;;;;7.95;6.28;;;13.70;92.60;;;;;;5021834;28;20105;-80
2021/09/24 00:29:50;;;;;;;6.95;5.63;;;13.70;92.90;;;;;;5012724;28;20021;-80
2021/09/24 00:32:16;;;;;;;6.50;5.75;;;13.70;93.00;;;;;;5023430;28;20026;-80
2021/09/24 00:34:42;;;;;;;5.53;4.97;;;13.70;93.10;;;;;;5020153;28;20022;-80
2021/09/24 00:37:08;;;;;;;6.00;5.40;;;13.70;93.30;;;;;;5022950;28;20026;-79
2021/09/24 00:39:33;;;;;;;6.03;5.13;;;13.70;93.40;;;;;;5029951;28;20506;-79
2021/09/24 00:41:59;;;;;;;7.07;6.05;;;13.70;93.60;;;;;;5020923;28;20579;-79
2021/09/24 00:44:27;;;;;;;8.75;5.95;;;13.60;93.80;;;;;;5003946;28;20449;-80
2021/09/24 00:46:57;;;;;;;6.93;5.78;;;13.70;94.00;;;;;;5003768;28;20029;-81
2021/09/24 00:49:22;;;;;;;7.40;5.40;;;13.60;94.10;;;;;;5027544;28;20026;-79
2021/09/24 00:51:48;;;;;;;5.88;5.15;;;13.60;94.30;;;;;;5024552;28;20041;-80
2021/09/24 00:54:14;;;;;;;8.05;6.82;;;13.60;94.50;;;;;;5026693;28;20029;-78
2021/09/24 00:56:40;;;;;;;9.45;5.95;;;13.60;94.70;;;;;;5029104;28;20064;-79
2021/09/24 00:59:06;;;;;;;6.43;5.60;;;13.60;94.90;;;;;;5020835;28;20036;-80
2021/09/24 01:01:31;;;;;;;6.40;5.35;;;13.60;95.00;;;;;;5019743;28;20026;-81
2021/09/24 01:03:57;;;;;;;6.25;5.57;;;13.50;95.10;;;;;;5019869;28;20033;-78
2021/09/24 01:06:24;;;;;;;5.88;4.97;;;13.50;95.40;;;;;;5021304;28;20042;-79
2021/09/24 01:08:50;;;;;;;6.43;5.82;;;13.50;95.60;;;;;;5028394;28;20093;-79
2021/09/24 01:11:16;;;;;;;9.55;6.15;;;13.40;96.00;;;;;;5009672;28;20502;-79
2021/09/24 01:13:41;;;;;;;6.72;5.55;;;13.40;96.10;;;;;;5019308;28;20486;-80
2021/09/24 01:16:07;;;;;;;7.50;6.28;;;13.40;96.20;;;;;;5019148;28;20045;-80
2021/09/24 01:18:33;;;;;;;6.32;5.28;;;13.40;96.50;;;;;;5019206;28;20605;-79
2021/09/24 01:21:00;;;;;;;7.95;5.75;;;13.40;96.70;;;;;;5019415;28;20029;-79
2021/09/24 01:23:25;;;;;;;7.13;5.57;;;13.40;96.90;;;;;;5006269;28;20401;-79
2021/09/24 01:25:51;;;;;;;6.40;5.60;;;13.40;97.10;;;;;;5011362;28;20086;-79
2021/09/24 01:28:17;;;;;;;8.02;6.03;;;13.40;97.20;;;;;;5030492;28;20087;-79
2021/09/24 01:30:43;;;;;;;6.45;5.25;;;13.40;97.30;;;;;;5021620;28;20028;-80
2021/09/24 01:33:08;;;;;;;6.95;5.55;;;13.40;97.40;;;;;;5020928;28;20026;-80
2021/09/24 01:35:34;;;;;;;7.72;6.15;;;13.40;97.60;;;;;;5019483;28;20025;-80
2021/09/24 01:38:00;;;;;;;6.35;5.75;;;13.40;97.90;;;;;;5002951;28;20041;-80
2021/09/24 01:40:26;;;;;;;8.07;6.22;;;13.30;98.20;;;;;;5032719;28;20026;-80
2021/09/24 01:42:54;;;;;;;7.75;5.82;;;13.30;98.20;;;;;;5029385;28;20375;-79
2021/09/24 01:45:21;;;;;;;7.80;6.72;;;13.30;98.40;;;;;;5024463;28;20040;-78
2021/09/24 01:47:47;;;;;;;6.70;5.40;;;13.30;98.60;;;;;;5017829;28;20568;-80
2021/09/24 01:50:13;;;;;;;6.68;5.97;;;13.30;98.70;;;;;;5019114;28;20033;-80
2021/09/24 01:52:40;;;;;;;7.38;6.65;;;13.40;98.80;;;;;;5019894;28;20032;-79
2021/09/24 01:55:07;;;;;;;8.30;6.20;;;13.30;98.90;;;;;;5019929;28;20037;-79
2021/09/24 01:57:33;;;;;;;7.20;5.40;;;13.30;99.00;;;;;;5019278;28;20076;-80
2021/09/24 01:59:58;;;;;;;6.07;5.47;;;13.20;99.10;;;;;;5000195;28;20052;-80
2021/09/24 02:02:24;;;;;;;7.55;6.18;;;13.20;99.20;;;;;;5019119;28;20082;-80
2021/09/24 02:04:50;;;;;;;6.10;5.38;;;13.20;99.30;;;;;;5002550;28;20029;-80
2021/09/24 02:07:16;;;;;;;11.13;6.55;;;13.20;99.50;;;;;;5022322;28;20033;-80
2021/09/24 02:09:42;;;;;;;5.85;5.32;;;13.20;99.70;;;;;;5023732;28;20125;-79
2021/09/24 02:12:08;;;;;;;7.20;5.93;;;13.10;99.80;;;;;;5019915;28;20044;-79
2021/09/24 02:14:34;;;;;;;7.63;6.60;;;13.10;99.90;;;;;;4999465;28;20065;-79
2021/09/24 02:17:01;;;;;;;7.65;6.18;;;13.10;99.90;;;;;;5018807;28;20049;-79
2021/09/24 02:19:27;;;;;;;6.97;5.40;;;13.10;99.90;;;;;;5025123;28;20018;-78
2021/09/24 02:21:52;;;;;;;7.78;6.50;;;13.10;99.90;;;;;;5011283;28;20080;-79
2021/09/24 02:24:18;;;;;;;7.93;6.05;;;13.00;99.90;;;;;;5021421;28;20030;-79
2021/09/24 02:26:44;;;;;;;7.18;6.43;;;13.00;99.90;;;;;;5023445;28;20037;-80
2021/09/24 02:29:11;;;;;;;7.05;6.35;;;13.00;99.90;;;;;;5028841;28;20293;-80
2021/09/24 02:31:37;;;;;;;11.82;7.55;;;13.00;99.90;;;;;;5025639;28;20085;-80
2021/09/24 02:34:03;;;;;;;7.18;6.18;;;13.00;99.90;;;;;;5018269;28;20405;-78
2021/09/24 02:36:29;;;;;;;8.40;6.75;;;13.00;99.90;;;;;;5017403;28;20343;-79
2021/09/24 02:38:55;;;;;;;7.00;6.28;;;13.00;99.90;;;;;;5026159;28;20034;-79
2021/09/24 02:41:20;;;;;;;8.73;6.53;;;13.00;99.90;;;;;;5021430;28;20083;-79
2021/09/24 02:43:46;;;;;;;9.02;6.85;;;13.00;99.90;;;;;;5019212;28;20029;-80
2021/09/24 02:46:12;;;;;;;7.25;6.55;;;13.00;99.90;;;;;;5000612;28;20086;-80
2021/09/24 02:48:37;;;;;;;6.75;5.78;;;13.00;99.90;;;;;;5001163;28;20080;-80
2021/09/24 02:51:03;;;;;;;8.80;7.45;;;12.90;99.90;;;;;;5019145;28;20022;-79
2021/09/24 02:53:29;;;;;;;8.60;6.18;;;12.90;99.90;;;;;;5018263;28;20049;-79
2021/09/24 02:55:55;;;;;;;7.47;6.63;;;12.90;99.90;;;;;;5018629;28;20026;-78
2021/09/24 02:58:20;;;;;;;7.40;6.60;;;12.90;99.90;;;;;;5026937;23;20034;-79
2021/09/24 03:00:46;;;;;;;9.02;6.10;;;12.90;99.90;;;;;;5024031;28;20048;-79
2021/09/24 03:03:12;;;;;;;7.28;5.88;;;12.90;99.90;;;;;;5020833;28;20032;-79
2021/09/24 03:05:38;;;;;;;8.70;7.05;;;12.80;99.90;;;;;;5010381;28;20023;-79
2021/09/24 03:08:04;;;;;;;8.15;6.28;;;12.80;99.90;;;;;;5011846;28;20018;-79
2021/09/24 03:10:30;;;;;;;6.45;5.55;;;12.70;99.90;;;;;;5011439;28;20030;-79
2021/09/24 03:12:56;;;;;;;6.60;5.90;;;12.70;99.90;;;;;;4998510;28;20107;-79
2021/09/24 03:15:22;;;;;;;8.15;6.45;;;12.70;99.90;;;;;;4991628;28;20026;-79
2021/09/24 03:17:48;;;;;;;7.78;6.18;;;12.60;99.90;;;;;;4992613;28;20015;-79
2021/09/24 03:20:13;;;;;;;6.03;5.43;;;12.60;99.90;;;;;;4992488;28;20027;-79
2021/09/24 03:22:40;;;;;;;5.82;5.20;;;12.60;99.90;;;;;;4985934;28;20059;-79
2021/09/24 03:25:07;;;;;;;6.88;5.72;;;12.50;99.90;;;;;;5001401;28;20126;-80
2021/09/24 03:27:35;;;;;;;8.85;6.90;;;12.50;99.90;;;;;;5011697;28;20042;-81
2021/09/24 03:30:01;;;;;;;8.77;6.57;;;12.50;99.90;;;;;;4997189;28;20467;-81
2021/09/24 03:32:27;;;;;;;7.25;6.38;;;12.50;99.90;;;;;;4983940;28;20121;-81
2021/09/24 03:34:52;;;;;;;7.20;6.35;;;12.50;99.90;;;;;;4986000;28;20063;-80
2021/09/24 03:37:18;;;;;;;8.40;6.82;;;12.50;99.90;;;;;;4984396;28;20037;-80
2021/09/24 03:39:44;;;;;;;8.15;6.78;;;12.40;99.90;;;;;;4990304;28;20026;-79
2021/09/24 03:42:10;;;;;;;9.90;7.53;;;12.50;99.90;;;;;;4991038;28;20054;-81
2021/09/24 03:44:37;;;;;;;6.45;5.72;;;12.50;99.90;;;;;;5003323;28;20081;-77
2021/09/24 03:47:03;;;;;;;8.30;6.90;;;12.50;99.90;;;;;;5012010;28;20035;-78
2021/09/24 03:49:29;;;;;;;7.68;6.18;;;12.50;99.90;;;;;;4985334;28;20101;-81
2021/09/24 03:51:55;;;;;;;8.00;6.45;;;12.50;99.90;;;;;;4985693;28;20031;-81
2021/09/24 03:54:22;;;;;;;9.10;6.50;;;12.40;99.90;;;;;;4996399;28;20392;-81
2021/09/24 03:56:48;;;;;;;8.65;7.30;;;12.40;99.90;;;;;;4991717;28;20113;-81
2021/09/24 03:59:13;;;;;;;11.50;7.93;;;12.40;99.90;;;;;;4992520;28;20030;-81
2021/09/24 04:01:40;;;;;;;11.10;7.05;;;12.40;99.90;;;;;;4993703;28;20023;-82
2021/09/24 04:04:06;;;;;;;7.35;6.35;;;12.40;99.90;;;;;;4987411;28;20025;-79
2021/09/24 04:06:31;;;;;;;7.57;6.50;;;12.40;99.90;;;;;;4995788;28;20038;-81
2021/09/24 04:08:57;;;;;;;8.70;7.25;;;12.30;99.90;;;;;;4979141;28;20069;-79
2021/09/24 04:11:23;;;;;;;9.23;7.40;;;12.30;99.90;;;;;;4980382;28;20035;-81
2021/09/24 04:13:49;;;;;;;8.52;6.40;;;12.30;99.90;;;;;;4980522;28;20027;-81
2021/09/24 04:16:15;;;;;;;8.15;6.40;;;12.30;99.90;;;;;;4986904;28;20026;-79
2021/09/24 04:18:41;;;;;;;7.65;5.93;;;12.30;99.90;;;;;;4981184;28;20030;-79
2021/09/24 04:21:07;;;;;;;7.55;5.90;;;12.20;99.90;;;;;;4982382;28;20031;-79
2021/09/24 04:23:33;;;;;;;7.20;6.47;;;12.30;99.90;;;;;;4989426;28;20031;-79
2021/09/24 04:25:59;;;;;;;7.68;6.88;;;12.30;99.90;;;;;;4998265;28;20066;-80
2021/09/24 04:28:25;;;;;;;7.90;6.70;;;12.20;99.90;;;;;;5005389;28;20034;-80
2021/09/24 04:30:51;;;;;;;7.80;6.78;;;12.20;99.90;;;;;;5006368;28;20027;-78
2021/09/24 04:33:17;;;;;;;8.93;6.72;;;12.20;99.90;;;;;;5008889;28;20061;-81
2021/09/24 04:35:43;;;;;;;9.00;6.28;;;12.20;99.90;;;;;;5001239;28;20022;-82
2021/09/24 04:38:08;;;;;;;7.95;6.35;;;12.20;99.90;;;;;;4982906;28;20038;-84
2021/09/24 04:40:34;;;;;;;7.50;6.57;;;12.20;99.90;;;;;;4995220;28;20030;-84
2021/09/24 04:43:01;;;;;;;7.55;5.88;;;12.20;99.90;;;;;;4984080;28;20057;-84
2021/09/24 04:45:27;;;;;;;7.60;6.45;;;12.20;99.90;;;;;;4987531;28;20487;-85
2021/09/24 04:47:53;;;;;;;7.05;6.30;;;12.10;99.90;;;;;;4991383;28;20404;-84
2021/09/24 04:50:19;;;;;;;8.93;6.85;;;12.10;99.90;;;;;;4981313;28;20042;-84
2021/09/24 04:52:45;;;;;;;7.93;6.70;;;12.10;99.90;;;;;;4978262;28;20022;-84
2021/09/24 04:55:10;;;;;;;9.25;6.82;;;12.10;99.90;;;;;;4996061;28;20057;-84
2021/09/24 04:57:37;;;;;;;9.88;6.30;;;12.10;99.90;;;;;;4989519;28;20042;-85
2021/09/24 05:00:05;;;;;;;11.93;7.63;;;12.10;99.90;;;;;;4976695;28;20046;-85
2021/09/24 05:02:31;;;;;;;9.10;7.38;;;12.10;99.90;;;;;;4996514;28;20070;-84
2021/09/24 05:04:57;;;;;;;7.45;6.55;;;12.10;99.90;;;;;;5010915;28;20046;-85
2021/09/24 05:07:23;;;;;;;7.90;5.95;;;12.10;99.90;;;;;;5000375;28;20034;-84
2021/09/24 05:09:48;;;;;;;9.27;6.78;;;12.10;99.90;;;;;;5000399;28;20033;-84
2021/09/24 05:12:14;;;;;;;10.07;8.02;;;12.10;99.90;;;;;;5004245;28;20118;-84
2021/09/24 05:14:40;;;;;;;8.73;6.47;;;12.20;99.90;;;;;;5003221;28;20122;-84
2021/09/24 05:17:06;;;;;;;9.40;7.30;;;12.20;99.90;;;;;;4993897;28;20050;-84
2021/09/24 05:19:31;;;;;;;7.80;6.22;;;12.20;99.90;;;;;;4983415;28;20023;-85
2021/09/24 05:21:57;;;;;;;9.15;7.65;;;12.30;99.90;;;;;;4989586;28;20034;-84
2021/09/24 05:24:23;;;;;;;9.05;6.85;;;12.30;99.90;;;;;;4998898;28;20038;-84
2021/09/24 05:26:48;;;;;;;8.02;6.55;;;12.40;99.90;;;;;;4994843;28;20103;-84
2021/09/24 05:29:14;;;;;;;6.55;5.85;;;12.50;99.90;;;;;;4996860;28;20022;-85
2021/09/24 05:31:40;;;;;;;7.82;6.70;;;12.50;99.90;;;;;;4999022;28;20050;-83
2021/09/24 05:34:06;;;;;;;11.25;7.15;;;12.50;99.90;;;;;;4999707;28;20463;-83
2021/09/24 05:36:32;;;;;;;9.05;6.65;;;12.60;99.90;;;;;;4997537;28;20022;-84
2021/09/24 05:38:58;;;;;;;7.65;5.88;;;12.60;99.90;;;;;;4979532;28;20027;-84
2021/09/24 05:41:24;;;;;;;8.38;7.10;;;12.60;99.90;;;;;;4988875;28;20023;-84
2021/09/24 05:43:50;;;;;;;8.70;6.97;;;12.60;99.90;;;;;;4983120;28;20049;-83
2021/09/24 05:46:20;;;;;;;8.00;6.15;;;12.60;99.90;;;;;;4987620;28;20486;-83
2021/09/24 05:48:46;;;;;;;9.77;6.10;;;12.70;99.90;;;;;;4999537;28;20057;-84
2021/09/24 05:51:12;;;;;;;8.75;6.95;;;12.70;99.90;;;;;;5000982;28;20027;-84
2021/09/24 05:53:38;;;;;;;10.00;6.53;;;12.70;99.90;;;;;;4982025;28;20041;-84
2021/09/24 05:56:08;;;;;;;10.77;6.95;;;12.80;99.90;;;;;;4981317;28;20019;-84
2021/09/24 05:58:34;;;;;;;10.80;6.72;;;12.80;99.90;;;;;;4997028;28;20030;-84
2021/09/24 06:00:59;;;;;;;9.52;6.60;;;12.80;99.90;;;;;;4998785;28;20137;-84
2021/09/24 06:03:25;;;;;;;9.82;6.15;;;12.90;99.90;;;;;;4995149;28;20033;-84
2021/09/24 06:05:51;;;;;;;10.10;7.07;;;12.80;99.90;;;;;;4981985;28;20033;-84
2021/09/24 06:08:17;;;;;;;10.10;7.22;;;12.90;99.90;;;;;;4982562;28;20069;-84
2021/09/24 06:10:42;;;;;;;8.48;6.82;;;12.90;99.90;;;;;;4981225;28;20022;-85
2021/09/24 06:13:09;;;;;;;8.23;6.22;;;13.00;99.90;;;;;;4981285;28;20053;-85
2021/09/24 06:15:36;;;;;;;7.53;6.10;;;13.00;99.90;;;;;;4981021;28;20518;-85
2021/09/24 06:18:02;;;;;;;8.63;7.10;;;13.10;99.90;;;;;;4982956;28;20038;-84
2021/09/24 06:20:28;;;;;;;9.02;6.40;;;13.10;99.90;;;;;;4983408;28;20030;-84
2021/09/24 06:22:54;;;;;;;13.20;7.25;;;13.20;99.90;;;;;;4984222;28;20078;-85
2021/09/24 06:25:20;;;;;;;14.70;6.47;;;13.30;99.90;;;;;;4981325;28;20066;-84
2021/09/24 06:27:46;;;;;;;10.45;7.18;;;13.30;99.90;;;;;;4985434;28;20046;-85
2021/09/24 06:30:17;;;;;;;12.77;7.60;;;13.40;99.90;;;;;;4998311;28;20018;-84
2021/09/24 06:32:42;;;;;;;9.95;6.93;;;13.40;99.90;;;;;;5006787;28;20097;-85
2021/09/24 06:35:09;;;;;;;7.35;6.22;;;13.50;99.90;;;;;;5007844;28;20014;-85
2021/09/24 06:37:34;;;;;;;9.18;7.28;;;13.50;99.90;;;;;;5005704;28;20037;-87
2021/09/24 06:40:00;;;;;;;10.02;6.95;;;13.60;99.90;;;;;;5001132;28;20109;-85
2021/09/24 06:42:26;;;;;;;7.90;5.97;;;13.70;99.90;;;;;;5001521;28;20038;-85
2021/09/24 06:44:53;;;;;;;7.40;5.72;;;13.80;99.90;;;;;;5015185;28;20030;-84
2021/09/24 06:47:19;;;;;;;10.77;6.15;;;13.80;99.90;;;;;;5009009;28;20101;-84
2021/09/24 06:49:45;;;;;;;11.02;6.53;;;13.80;99.90;;;;;;4997323;28;20053;-86
2021/09/24 06:52:11;;;;;;;7.55;6.75;;;14.00;99.90;;;;;;4998098;28;20023;-85
2021/09/24 06:54:37;;;;;;;8.73;6.45;;;14.10;99.90;;;;;;5001952;28;20053;-84
2021/09/24 06:57:03;;;;;;;8.88;5.95;;;14.10;99.90;;;;;;5000356;28;20022;-85
2021/09/24 06:59:30;;;;;;;12.88;6.40;;;14.20;99.90;;;;;;4987895;28;20031;-84
2021/09/24 07:01:56;;;;;;;13.52;5.90;;;14.30;99.90;;;;;;4999392;28;20018;-84
2021/09/24 07:04:22;;;;;;;11.00;5.82;;;14.40;99.70;;;;;;5004438;28;20038;-85
2021/09/24 07:06:48;;;;;;;8.70;6.28;;;14.50;99.40;;;;;;5001491;28;20022;-86
2021/09/24 07:09:15;;;;;;;9.77;6.32;;;14.60;99.10;;;;;;5003291;28;20026;-86
2021/09/24 07:11:42;;;;;;;8.18;5.70;;;14.80;98.50;;;;;;5003608;28;20370;-84
2021/09/24 07:14:12;;;;;;;8.98;5.93;;;14.90;97.90;;;;;;5002829;28;20096;-82
2021/09/24 07:16:38;;;;;;;8.45;5.97;;;15.00;97.20;;;;;;5003165;28;20041;-83
2021/09/24 07:19:05;;;;;;;8.35;5.78;;;15.10;96.60;;;;;;5007666;28;20037;-83
2021/09/24 07:21:32;;;;;;;9.23;6.03;;;15.20;95.80;;;;;;5001765;28;20026;-85
2021/09/24 07:23:59;;;;;;;10.90;5.90;;;15.40;95.50;;;;;;5002433;28;20036;-84
2021/09/24 07:26:27;;;;;;;7.25;5.75;;;15.50;95.00;;;;;;5005687;28;20052;-85
2021/09/24 07:29:05;;;;;;;7.90;5.32;;;15.60;94.60;;;;;;5000359;28;20025;-83
2021/09/24 07:31:31;;;;;;;6.88;4.93;;;15.80;94.20;;;;;;4990222;28;20031;-83
2021/09/24 07:34:22;;;;;;;6.90;5.45;;;15.90;93.90;;;;;;5004366;28;20242;-84
2021/09/24 07:36:51;;;;;;;8.85;5.47;;;16.00;93.00;;;;;;5003152;28;20077;-84
2021/09/24 07:39:17;;;;;;;6.63;5.35;;;16.10;92.90;;;;;;5001359;28;20038;-83
2021/09/24 07:41:43;;;;;;;7.28;4.78;;;16.20;92.20;;;;;;5003031;28;20026;-84
2021/09/24 07:44:33;;;;;;;6.20;5.05;;;16.30;91.90;;;;;;5004250;28;20027;-84
2021/09/24 07:48:07;;;;;;;7.38;4.50;;;16.50;91.50;;;;;;4989320;28;20522;-83
2021/09/24 07:50:53;;;;;;;5.85;5.25;;;16.80;90.80;;;;;;4909256;29;20057;-84
2021/09/24 07:53:18;;;;;;;6.68;5.40;;;17.00;89.60;;;;;;4944089;29;20031;-85
2021/09/24 07:56:00;;;;;;;6.47;5.13;;;17.10;88.70;;;;;;4968439;28;20051;-84
2021/09/24 07:58:26;;;;;;;9.98;5.63;;;17.20;87.60;;;;;;4948834;29;20039;-85
2021/09/24 08:00:52;;;;;;;11.45;5.60;;;17.40;86.10;;;;;;4962311;29;20035;-84
2021/09/24 08:03:18;;;;;;;5.72;4.88;;;17.50;85.10;;;;;;4967480;29;20054;-86
2021/09/24 08:05:44;;;;;;;5.03;3.85;;;17.60;84.80;;;;;;4974359;28;20102;-84
2021/09/24 08:08:09;;;;;;;7.90;4.57;;;17.80;84.40;;;;;;4992192;28;20026;-84
2021/09/24 08:10:35;;;;;;;5.22;4.43;;;17.90;83.40;;;;;;5001237;28;20120;-84
2021/09/24 08:13:01;;;;;;;5.97;4.00;;;18.00;82.40;;;;;;5001563;28;20018;-84
2021/09/24 08:15:27;;;;;;;7.53;4.28;;;18.20;81.80;;;;;;5002938;28;20034;-84
2021/09/24 08:17:53;;;;;;;9.10;4.55;;;18.40;80.60;;;;;;5004655;28;20045;-84
2021/09/24 08:20:19;;;;;;;4.32;3.92;;;18.60;79.50;;;;;;5003547;28;20031;-85
2021/09/24 08:22:46;;;;;;;8.25;4.47;;;18.70;79.00;;;;;;5007402;28;20061;-84
2021/09/24 08:25:14;;;;;;;7.32;4.22;;;18.90;78.20;;;;;;5009279;28;20085;-84
2021/09/24 08:27:41;;;;;;;5.65;4.70;;;19.00;76.60;;;;;;5008463;28;20035;-85
2021/09/24 08:30:11;;;;;;;5.03;4.13;;;19.10;75.10;;;;;;5007005;28;20034;-85
2021/09/24 08:32:37;;;;;;;4.45;4.00;;;19.10;74.70;;;;;;5007095;28;20072;-84
2021/09/24 08:35:05;;;;;;;4.35;3.15;;;19.20;75.10;;;;;;5009290;28;20015;-83
2021/09/24 08:37:31;;;;;;;5.78;4.63;;;19.50;74.70;;;;;;4990912;28;20023;-85
2021/09/24 08:39:57;;;;;;;4.70;3.97;;;19.50;72.60;;;;;;4993209;28;20034;-83
2021/09/24 08:42:22;;;;;;;5.50;3.97;;;19.10;73.40;;;;;;4982203;28;20093;-83
2021/09/24 08:44:49;;;;;;;9.38;5.22;;;18.90;74.80;;;;;;4985704;28;20026;-84
2021/09/24 08:47:16;;;;;;;5.13;3.85;;;18.90;75.30;;;;;;4984657;28;20065;-84
2021/09/24 08:49:43;;;;;;;5.50;4.30;;;19.30;75.70;;;;;;4988290;28;20019;-84
2021/09/24 08:52:09;;;;;;;5.57;3.42;;;19.60;73.30;;;;;;5003469;28;20033;-84
2021/09/24 08:54:35;;;;;;;4.53;3.80;;;20.00;72.30;;;;;;5000890;28;20034;-84
2021/09/24 08:57:02;;;;;;;6.13;3.60;;;20.20;70.90;;;;;;5000381;28;20033;-84
2021/09/24 08:59:28;;;;;;;3.60;3.15;;;20.20;70.40;;;;;;5041996;23;20033;-83
2021/09/24 09:02:03;;;;;;;6.45;4.18;;;20.40;70.10;;;;;;5020211;28;20045;-85
2021/09/24 09:04:44;;;;;;;4.78;3.95;;;20.50;68.90;;;;;;5019315;28;20062;-82
2021/09/24 09:07:13;;;;;;;5.13;3.40;;;20.60;68.30;;;;;;5032255;28;20033;-84
2021/09/24 09:09:44;;;;;;;4.43;3.80;;;20.70;68.20;;;;;;5010881;28;20038;-84
2021/09/24 09:12:14;;;;;;;5.45;3.30;;;20.80;67.10;;;;;;4994588;28;20032;-82
2021/09/24 09:14:42;;;;;;;5.25;3.85;;;20.90;67.30;;;;;;4998045;28;20081;-83
2021/09/24 09:17:28;;;;;;;5.60;3.70;;;21.10;66.20;;;;;;5012820;28;20021;-82
2021/09/24 09:20:17;;;;;;;6.70;4.30;;;21.20;65.50;;;;;;4996912;28;20082;-83
2021/09/24 09:22:48;;;;;;;4.20;3.70;;;21.50;64.70;;;;;;5013227;28;20113;-84
2021/09/24 09:25:28;;;;;;;4.28;3.83;;;21.60;64.20;;;;;;4995346;28;20046;-83
2021/09/24 09:27:57;;;;;;;3.83;3.53;;;21.80;64.20;;;;;;4992078;28;20159;-82
2021/09/24 09:30:23;;;;;;;4.47;4.07;;;22.10;63.50;;;;;;5012900;28;20022;-82
2021/09/24 09:33:15;;;;;;;4.30;3.90;;;22.40;61.50;;;;;;4990603;28;20035;-82
2021/09/24 09:35:48;;;;;;;6.70;4.30;;;22.40;61.20;;;;;;5007412;28;20784;-82
2021/09/24 09:38:31;;;;;;;5.15;4.18;;;22.30;61.40;;;;;;5009649;28;20037;-83
2021/09/24 09:41:11;;;;;;;4.53;3.70;;;22.30;60.30;;;;;;4980517;28;20054;-83
2021/09/24 09:43:47;;;;;;;4.65;3.83;;;22.20;60.20;;;;;;4972856;28;20038;-84
2021/09/24 09:46:22;;;;;;;7.78;4.15;;;22.20;60.30;;;;;;4990995;28;20072;-84
2021/09/24 09:49:08;;;;;;;4.15;3.75;;;22.40;59.60;;;;;;4991587;28;20047;-84
2021/09/24 09:51:37;;;;;;;5.65;4.00;;;22.50;59.60;;;;;;5004206;28;20038;-84
2021/09/24 09:54:04;;;;;;;4.13;3.70;;;22.40;59.60;;;;;;5009025;28;20080;-83
2021/09/24 09:56:39;;;;;;;5.38;4.00;;;22.20;59.80;;;;;;5011211;28;20073;-82
2021/09/24 09:59:28;;;;;;;4.88;3.50;;;22.10;59.80;;;;;;5022205;28;20053;-83
2021/09/24 10:02:20;;;;;;;3.97;3.58;;;22.00;60.90;;;;;;4996229;28;20038;-83
2021/09/24 10:04:52;;;;;;;4.43;3.78;;;22.10;60.70;;;;;;5002421;28;20038;-81
2021/09/24 10:07:23;;;;;;;4.20;3.10;;;22.20;60.40;;;;;;5009165;28;20103;-83
2021/09/24 10:10:04;;;;;;;7.38;3.70;;;22.30;60.20;;;;;;5005109;28;20081;-84
2021/09/24 10:12:30;;;;;;;5.10;4.00;;;22.50;59.80;;;;;;5005676;28;20018;-81
2021/09/24 10:14:56;;;;;;;4.65;3.50;;;22.60;59.10;;;;;;5028765;28;20041;-82
2021/09/24 10:17:23;;;;;;;5.13;3.60;;;22.60;58.60;;;;;;5034602;28;20010;-83
2021/09/24 10:19:54;;;;;;;5.35;4.45;;;22.70;58.60;;;;;;5032252;28;20054;-82
2021/09/24 10:22:23;;;;;;;6.30;4.28;;;22.80;58.00;;;;;;5000745;28;20038;-83
2021/09/24 10:24:51;;;;;;;5.60;3.83;;;22.80;58.00;;;;;;4996539;28;20034;-84
2021/09/24 10:27:23;;;;;;;4.43;4.03;;;22.90;58.00;;;;;;5012071;28;20019;-84
2021/09/24 10:29:50;;;;;;;;;;;22.90;57.60;;;;;;5021875;28;20045;-84
2021/09/24 10:32:20;;;;;;;5.82;3.40;;;22.90;57.40;;;;;;4995576;28;19921;-83
2021/09/24 10:34:59;;;;;;;7.35;3.55;;;22.80;58.50;;;;;;4994046;28;20023;-84
2021/09/24 10:37:26;;;;;;;6.38;3.78;;;22.70;58.40;;;;;;4996542;28;20049;-83
2021/09/24 10:40:00;;;;;;;4.25;3.67;;;22.60;58.90;;;;;;4995520;28;20075;-82
2021/09/24 10:42:35;;;;;;;4.43;3.63;;;22.50;59.50;;;;;;4986092;28;20085;-82
2021/09/24 10:45:42;;;;;;;3.97;3.63;;;22.40;59.60;;;;;;5007395;28;20026;-83
2021/09/24 10:48:19;;;;;;;6.18;4.10;;;22.50;60.30;;;;;;5014041;28;20078;-83
2021/09/24 10:51:17;;;;;;;4.68;4.22;;;22.70;59.60;;;;;;5012851;28;20105;-82
2021/09/24 10:53:46;;;;;;;4.05;3.53;;;22.90;58.90;;;;;;4978681;28;20042;-83
2021/09/24 10:56:15;;;;;;;4.18;3.65;;;22.90;59.30;;;;;;5011783;28;20046;-83
2021/09/24 10:58:42;;;;;;;4.97;4.13;;;23.00;59.20;;;;;;5002189;28;20223;-83
2021/09/24 11:01:31;;;;;;;4.65;3.55;;;23.00;58.70;;;;;;5004871;28;20121;-83
2021/09/24 11:04:18;;;;;;;4.30;3.83;;;23.10;58.90;;;;;;4981952;28;20102;-83
2021/09/24 11:06:52;;;;;;;4.72;4.20;;;23.30;58.40;;;;;;4976476;28;20027;-83
2021/09/24 11:09:21;;;;;;;5.85;3.95;;;23.30;58.20;;;;;;4976307;28;20082;-83
2021/09/24 11:12:03;;;;;;;4.22;3.83;;;23.30;58.10;;;;;;4977214;28;20097;-84
2021/09/24 11:14:32;;;;;;;4.85;3.92;;;23.30;58.50;;;;;;5010992;28;20050;-83
2021/09/24 11:17:00;;;;;;;4.88;3.67;;;23.40;57.70;;;;;;5009958;28;20026;-82
2021/09/24 11:19:35;;;;;;;7.25;4.03;;;23.70;57.80;;;;;;5011969;28;20030;-82
2021/09/24 11:22:13;;;;;;;4.88;4.10;;;24.60;55.60;;;;;;5032005;28;20026;-82
2021/09/24 11:24:45;;;;;;;6.65;4.03;;;25.40;54.30;;;;;;5013344;28;20046;-82
2021/09/24 11:27:32;;;;;;;8.50;3.83;;;25.70;52.60;;;;;;5012506;28;20066;-82
2021/09/24 11:30:04;;;;;;;4.38;3.97;;;25.50;52.90;;;;;;5017705;28;20065;-82
2021/09/24 11:32:32;;;;;;;4.78;4.38;;;25.00;53.80;;;;;;5031979;28;20018;-82
2021/09/24 11:34:59;;;;;;;4.65;4.07;;;24.70;54.20;;;;;;5032254;28;20026;-81
2021/09/24 11:37:33;;;;;;;6.20;4.15;;;24.30;55.00;;;;;;5017138;28;20041;-82
2021/09/24 11:40:09;;;;;;;5.97;4.90;;;24.00;56.00;;;;;;5028952;28;20026;-82
2021/09/24 11:42:44;;;;;;;4.55;3.95;;;23.80;55.80;;;;;;5024816;28;20081;-79
2021/09/24 11:45:16;;;;;;;5.60;4.07;;;23.70;56.10;;;;;;5020866;28;20086;-80
2021/09/24 11:47:44;;;;;;;3.90;3.60;;;23.70;55.70;;;;;;4983607;28;20035;-81
2021/09/24 11:50:18;;;;;;;6.68;4.32;;;23.60;55.90;;;;;;4973086;28;20027;-79
2021/09/24 11:52:52;;;;;;;4.63;4.20;;;23.60;56.00;;;;;;4970754;28;20062;-79
2021/09/24 11:55:23;;;;;;;4.10;3.70;;;23.60;56.70;;;;;;4969802;28;20111;-81
2021/09/24 11:58:13;;;;;;;3.97;3.50;;;23.50;55.70;;;;;;4971961;28;20165;-80
2021/09/24 12:00:43;;;;;;;4.45;3.25;;;23.60;55.10;;;;;;4994558;28;20034;-80
2021/09/24 12:03:15;;;;;;;3.92;3.63;;;23.60;54.50;;;;;;4990695;28;20023;-81
2021/09/24 12:05:48;;;;;;;4.75;4.35;;;23.60;54.80;;;;;;5013290;28;20387;-80
2021/09/24 12:08:20;;;;;;;4.45;3.83;;;23.50;55.60;;;;;;5021495;28;20418;-81
2021/09/24 12:10:46;;;;;;;4.20;3.42;;;23.50;56.80;;;;;;4993999;28;20361;-80
2021/09/24 12:13:16;;;;;;;4.57;3.83;;;23.70;56.20;;;;;;5005885;28;20023;-81
2021/09/24 12:15:49;;;;;;;4.05;3.60;;;23.90;55.30;;;;;;5003481;28;20045;-81
2021/09/24 12:18:15;;;;;;;6.00;4.00;;;24.00;54.20;;;;;;5003364;28;20573;-80
2021/09/24 12:20:42;;;;;;;4.72;4.28;;;23.90;53.60;;;;;;5008812;28;20045;-80
2021/09/24 12:23:08;;;;;;;6.22;4.30;;;23.70;54.30;;;;;;5021744;28;20024;-80
2021/09/24 12:25:33;;;;;;;4.75;4.25;;;23.60;54.40;;;;;;5021448;28;20034;-82
2021/09/24 12:28:10;;;;;;;4.20;3.80;;;23.50;55.00;;;;;;5004686;28;20026;-81
2021/09/24 12:30:39;;;;;;;4.00;3.70;;;23.60;55.70;;;;;;5005130;28;20018;-81
2021/09/24 12:33:22;;;;;;;4.55;3.53;;;23.60;54.70;;;;;;5027915;28;20010;-79
2021/09/24 12:36:07;;;;;;;5.90;3.55;;;23.80;53.40;;;;;;5010969;28;20475;-80
2021/09/24 12:38:35;;;;;;;3.00;2.80;;;23.80;52.90;;;;;;4993986;28;20042;-81
2021/09/24 12:41:14;;;;;;;3.05;2.85;;;23.80;52.60;;;;;;5013383;28;20023;-80
2021/09/24 12:43:40;;;;;;;4.10;3.70;;;23.90;52.70;;;;;;5015550;28;20040;-81
2021/09/24 12:46:08;;;;;;;3.90;3.60;;;24.00;52.10;;;;;;5012427;28;20029;-81
2021/09/24 12:48:40;;;;;;;4.15;3.75;;;24.00;52.40;;;;;;5016105;28;20022;-80
2021/09/24 12:51:07;;;;;;;4.03;3.72;;;24.10;52.70;;;;;;5035466;28;20037;-81
2021/09/24 12:53:35;;;;;;;4.60;3.60;;;24.20;52.50;;;;;;5021841;28;20021;-79